createdAt,value
2023-03-20T00:03:17.523Z,70.71
2023-03-20T00:06:41.405Z,70.65
2023-03-20T00:10:05.553Z,70.95
2023-03-20T00:13:29.477Z,71.05
2023-03-20T00:16:53.866Z,70.86
2023-03-20T00:20:18.531Z,70.85
2023-03-20T00:23:42.536Z,71.32
2023-03-20T00:27:07.057Z,71.65
2023-03-20T00:30:32.317Z,71.58
2023-03-20T00:33:59.244Z,71.04
2023-03-20T00:37:23.022Z,71.24
2023-03-20T00:40:46.870Z,71.54
2023-03-20T00:44:28.958Z,71.35
2023-03-20T00:47:54.071Z,71.55
2023-03-20T00:51:19.617Z,71.50
2023-03-20T00:54:43.498Z,71.87
2023-03-20T00:58:07.771Z,71.93
2023-03-20T01:01:33.195Z,71.83
2023-03-20T01:04:57.049Z,72.70
2023-03-20T01:08:25.696Z,72.60
2023-03-20T01:11:49.665Z,72.19
2023-03-20T01:15:22.776Z,71.94
2023-03-20T01:18:46.561Z,72.38
2023-03-20T01:22:10.674Z,72.58
2023-03-20T01:25:34.866Z,72.55
2023-03-20T01:29:00.378Z,72.63
2023-03-20T01:32:25.073Z,72.91
2023-03-20T01:35:51.767Z,73.73
2023-03-20T01:39:15.865Z,73.42
2023-03-20T01:42:42.415Z,74.65
2023-03-20T01:46:32.017Z,75.14
2023-03-20T01:50:26.382Z,75.50
2023-03-20T01:54:12.300Z,75.20
2023-03-20T01:57:46.132Z,75.61
2023-03-20T02:01:14.596Z,76.20
2023-03-20T02:04:44.996Z,76.19
2023-03-20T02:08:18.359Z,76.01
2023-03-20T02:11:44.851Z,75.53
2023-03-20T02:15:09.442Z,75.16
2023-03-20T02:18:59.358Z,75.39
2023-03-20T02:22:49.602Z,75.31
2023-03-20T02:26:27.808Z,75.40
2023-03-20T02:29:59.252Z,75.29
2023-03-20T02:33:38.112Z,74.70
2023-03-20T02:37:23.182Z,74.99
2023-03-20T02:41:02.436Z,75.30
2023-03-20T02:44:26.297Z,75.24
2023-03-20T02:48:14.955Z,75.00
2023-03-20T02:51:58.203Z,75.41
2023-03-20T02:55:45.201Z,75.19
2023-03-20T02:59:20.723Z,75.05
2023-03-20T03:02:59.404Z,75.27
2023-03-20T03:06:29.865Z,75.41
2023-03-20T03:10:04.240Z,75.33
2023-03-20T03:13:32.633Z,75.36
2023-03-20T03:17:02.813Z,75.41
2023-03-20T03:20:35.134Z,75.35
2023-03-20T03:23:59.006Z,75.40
2023-03-20T03:27:30.823Z,75.24
2023-03-20T03:30:57.339Z,75.16
2023-03-20T03:34:25.185Z,75.32
2023-03-20T03:38:10.126Z,75.28
2023-03-20T03:41:41.441Z,75.37
2023-03-20T03:45:15.351Z,75.27
2023-03-20T03:48:47.065Z,75.27
2023-03-20T03:52:18.542Z,75.55
2023-03-20T03:55:51.262Z,75.43
2023-03-20T03:59:31.611Z,75.45
2023-03-20T04:02:58.416Z,75.45
2023-03-20T04:06:23.190Z,75.55
2023-03-20T04:09:47.953Z,75.65
2023-03-20T04:13:11.987Z,75.54
2023-03-20T04:16:36.158Z,75.59
2023-03-20T04:20:01.707Z,75.36
2023-03-20T04:23:25.666Z,75.35
2023-03-20T04:26:49.614Z,75.20
2023-03-20T04:30:14.194Z,75.22
2023-03-20T04:33:56.860Z,75.40
2023-03-20T04:37:38.750Z,75.43
2023-03-20T04:41:05.590Z,75.75
2023-03-20T04:44:29.900Z,75.61
2023-03-20T04:47:53.945Z,75.64
2023-03-20T04:51:19.762Z,75.58
2023-03-20T04:54:48.059Z,75.44
2023-03-20T04:58:12.306Z,75.58
2023-03-20T05:01:38.085Z,75.47
2023-03-20T05:05:02.394Z,75.45
2023-03-20T05:08:27.312Z,75.43
2023-03-20T05:11:55.667Z,75.45
2023-03-20T05:15:39.909Z,75.12
2023-03-20T05:19:27.834Z,74.99
2023-03-20T05:23:14.551Z,75.09
2023-03-20T05:26:48.629Z,75.07
2023-03-20T05:30:31.819Z,74.95
2023-03-20T05:34:22.705Z,74.83
2023-03-20T05:38:01.332Z,74.60
2023-03-20T05:41:45.828Z,74.20
2023-03-20T05:45:28.639Z,74.15
2023-03-20T05:49:30.574Z,74.00
2023-03-20T05:53:10.574Z,73.80
2023-03-20T05:56:59.189Z,73.50
2023-03-20T06:00:52.422Z,73.25
2023-03-20T06:04:39.450Z,72.93
2023-03-20T06:08:09.000Z,72.49
2023-03-20T06:11:35.477Z,71.99
2023-03-20T06:15:03.150Z,71.59
2023-03-20T06:18:28.879Z,71.35
2023-03-20T06:21:53.206Z,70.89
2023-03-20T06:25:18.333Z,70.54
2023-03-20T06:28:42.838Z,70.21
2023-03-20T06:32:10.896Z,70.00
2023-03-20T06:35:35.935Z,69.74
2023-03-20T06:39:00.410Z,69.51
2023-03-20T06:42:24.847Z,69.06
2023-03-20T06:45:49.190Z,68.62
2023-03-20T06:49:23.039Z,68.04
2023-03-20T06:52:47.544Z,67.37
2023-03-20T06:56:31.195Z,66.53
2023-03-20T06:59:54.992Z,65.83
2023-03-20T07:03:19.160Z,65.07
2023-03-20T07:06:44.509Z,64.49
2023-03-20T07:10:10.024Z,63.64
2023-03-20T07:13:34.528Z,62.74
2023-03-20T07:17:05.180Z,62.04
2023-03-20T07:20:30.734Z,61.04
2023-03-20T07:23:56.017Z,60.33
2023-03-20T07:27:20.157Z,59.32
2023-03-20T07:30:44.862Z,58.62
2023-03-20T07:34:13.235Z,58.00
2023-03-20T07:37:37.775Z,57.41
2023-03-20T07:41:01.863Z,57.16
2023-03-20T07:44:26.857Z,55.92
2023-03-20T07:47:51.241Z,55.15
2023-03-20T07:51:15.411Z,55.10
2023-03-20T07:54:39.276Z,54.39
2023-03-20T07:58:03.702Z,53.76
2023-03-20T08:01:28.512Z,52.35
2023-03-20T08:04:52.395Z,52.35
2023-03-20T08:08:16.363Z,51.79
2023-03-20T08:11:40.796Z,51.38
2023-03-20T08:15:05.045Z,50.57
2023-03-20T08:18:29.234Z,50.02
2023-03-20T08:21:53.433Z,49.23
2023-03-20T08:25:18.027Z,48.67
2023-03-20T08:28:47.559Z,47.44
2023-03-20T08:32:12.439Z,47.67
2023-03-20T08:35:36.767Z,47.48
2023-03-20T08:39:01.838Z,47.89
2023-03-20T08:42:25.752Z,48.49
2023-03-20T08:45:49.866Z,48.45
2023-03-20T08:49:14.437Z,48.12
2023-03-20T08:52:38.679Z,47.95
2023-03-20T08:56:03.032Z,47.42
2023-03-20T08:59:27.094Z,46.59
2023-03-20T09:02:51.940Z,45.95
2023-03-20T09:06:18.213Z,44.62
2023-03-20T09:09:42.275Z,42.44
2023-03-20T09:13:23.715Z,43.27
2023-03-20T09:16:50.002Z,44.45
2023-03-20T09:20:14.429Z,44.17
2023-03-20T09:23:38.479Z,43.86
2023-03-20T09:27:03.696Z,43.46
2023-03-20T09:30:27.779Z,43.39
2023-03-20T09:33:51.795Z,43.13
2023-03-20T09:37:15.854Z,42.40
2023-03-20T09:41:01.346Z,42.30
2023-03-20T09:44:28.605Z,42.90
2023-03-20T09:48:02.613Z,43.08
2023-03-20T09:51:46.448Z,42.69
2023-03-20T09:55:25.779Z,42.82
2023-03-20T09:58:56.993Z,42.01
2023-03-20T10:02:30.050Z,42.20
2023-03-20T10:06:03.619Z,42.26
2023-03-20T10:09:31.822Z,42.59
2023-03-20T10:13:13.800Z,42.59
2023-03-20T10:17:01.012Z,42.44
2023-03-20T10:20:36.329Z,42.22
2023-03-20T10:24:06.990Z,41.61
2023-03-20T10:27:36.978Z,40.37
2023-03-20T10:31:15.596Z,40.09
2023-03-20T10:34:56.736Z,40.79
2023-03-20T10:39:11.748Z,38.70
2023-03-20T10:42:41.097Z,38.72
2023-03-20T10:46:10.597Z,40.19
2023-03-20T10:49:56.025Z,41.18
2023-03-20T10:53:31.732Z,41.05
2023-03-20T10:56:58.409Z,40.06
2023-03-20T11:00:25.205Z,40.46
2023-03-20T11:03:49.372Z,40.87
2023-03-20T11:07:15.395Z,40.42
2023-03-20T11:10:41.638Z,40.47
2023-03-20T11:14:27.455Z,40.21
2023-03-20T11:17:59.399Z,40.47
2023-03-20T11:21:29.764Z,40.80
2023-03-20T11:24:58.898Z,41.17
2023-03-20T11:28:29.488Z,41.36
2023-03-20T11:31:53.813Z,41.32
2023-03-20T11:35:27.204Z,40.86
2023-03-20T11:38:52.368Z,40.37
2023-03-20T11:42:25.674Z,40.75
2023-03-20T11:45:59.472Z,39.94
2023-03-20T11:49:25.855Z,40.13
2023-03-20T11:52:49.869Z,39.92
2023-03-20T11:56:27.521Z,39.84
2023-03-20T11:59:52.181Z,39.58
2023-03-20T12:03:41.109Z,39.27
2023-03-20T12:07:20.752Z,39.60
2023-03-20T12:10:50.286Z,39.65
2023-03-20T12:14:45.994Z,39.52
2023-03-20T12:18:21.604Z,39.11
2023-03-20T12:22:04.651Z,38.43
2023-03-20T12:25:37.838Z,39.23
2023-03-20T12:29:21.967Z,39.46
2023-03-20T12:33:15.787Z,40.02
2023-03-20T12:36:45.463Z,39.78
2023-03-20T12:40:22.040Z,40.28
2023-03-20T12:44:01.536Z,40.28
2023-03-20T12:47:44.902Z,40.90
2023-03-20T12:51:21.959Z,41.07
2023-03-20T12:54:55.932Z,40.92
2023-03-20T12:58:28.650Z,41.48
2023-03-20T13:01:57.839Z,41.70
2023-03-20T13:05:32.358Z,42.12
2023-03-20T13:09:03.783Z,42.26
2023-03-20T13:12:53.128Z,42.98
2023-03-20T13:16:28.941Z,43.50
2023-03-20T13:20:11.036Z,43.52
2023-03-20T13:23:52.378Z,43.90
2023-03-20T13:28:00.410Z,44.06
2023-03-20T13:32:12.705Z,44.43
2023-03-20T13:35:37.266Z,44.80
2023-03-20T13:39:15.618Z,45.09
2023-03-20T13:43:14.348Z,44.63
2023-03-20T13:46:48.727Z,43.68
2023-03-20T13:50:38.442Z,43.47
2023-03-20T13:54:16.953Z,43.49
2023-03-20T13:57:59.670Z,43.74
2023-03-20T14:01:33.279Z,44.36
2023-03-20T14:05:27.880Z,45.10
2023-03-20T14:08:55.758Z,46.23
2023-03-20T14:12:24.451Z,47.22
2023-03-20T14:15:59.070Z,48.28
2023-03-20T14:19:26.536Z,49.18
2023-03-20T14:22:51.333Z,50.02
2023-03-20T14:26:27.267Z,51.09
2023-03-20T14:29:51.229Z,51.74
2023-03-20T14:33:35.067Z,52.12
2023-03-20T14:37:46.149Z,53.55
2023-03-20T14:41:52.037Z,55.77
2023-03-20T14:46:15.088Z,57.34
2023-03-20T14:50:24.075Z,57.81
2023-03-20T14:54:37.113Z,59.16
2023-03-20T14:59:03.064Z,59.81
2023-03-20T15:03:04.077Z,61.00
2023-03-20T15:07:16.997Z,62.18
2023-03-20T15:11:22.184Z,63.50
2023-03-20T15:15:24.230Z,63.15
2023-03-20T15:19:32.071Z,62.94
2023-03-20T15:23:30.035Z,64.16
2023-03-20T15:27:28.071Z,64.48
2023-03-20T15:31:39.017Z,65.58
2023-03-20T15:35:40.033Z,65.84
2023-03-20T15:39:43.987Z,66.42
2023-03-20T15:43:46.328Z,67.17
2023-03-20T15:47:43.961Z,68.02
2023-03-20T15:51:43.032Z,68.44
2023-03-20T15:55:43.038Z,69.75
2023-03-20T15:59:44.085Z,69.54
2023-03-20T16:03:48.027Z,70.52
2023-03-20T16:07:47.978Z,71.17
2023-03-20T16:11:54.987Z,71.73
2023-03-20T16:15:54.039Z,73.00
2023-03-20T16:19:52.955Z,73.56
2023-03-20T16:23:56.966Z,73.22
2023-03-20T16:27:55.964Z,74.43
2023-03-20T16:32:11.993Z,74.86
2023-03-20T16:36:11.012Z,74.93
2023-03-20T16:40:29.036Z,74.53
2023-03-20T16:44:34.983Z,74.91
2023-03-20T16:48:40.753Z,75.49
2023-03-20T16:52:42.002Z,75.49
2023-03-20T16:56:50.931Z,75.94
2023-03-20T17:01:10.926Z,76.70
2023-03-20T17:05:16.908Z,77.06
2023-03-20T17:09:27.881Z,77.52
2023-03-20T17:13:25.946Z,77.81
2023-03-20T17:17:31.931Z,78.06
2023-03-20T17:21:32.089Z,78.04
2023-03-20T17:25:29.928Z,78.22
2023-03-20T17:29:30.080Z,78.43
2023-03-20T17:33:29.880Z,78.48
2023-03-20T17:37:30.215Z,78.66
2023-03-20T17:41:30.956Z,78.50
2023-03-20T17:45:30.937Z,79.06
2023-03-20T17:49:33.843Z,79.30
2023-03-20T17:53:37.928Z,79.33
2023-03-20T17:57:52.864Z,79.41
2023-03-20T18:01:51.978Z,79.40
2023-03-20T18:05:49.930Z,79.35
2023-03-20T18:09:47.833Z,79.38
2023-03-20T18:13:45.829Z,79.27
2023-03-20T18:17:43.873Z,79.18
2023-03-20T18:21:41.975Z,79.60
2023-03-20T18:25:39.854Z,79.02
2023-03-20T18:29:37.850Z,79.33
2023-03-20T18:33:35.846Z,79.33
2023-03-20T18:37:33.894Z,79.73
2023-03-20T18:41:31.830Z,79.64
2023-03-20T18:45:29.770Z,79.75
2023-03-20T18:49:32.855Z,80.04
2023-03-20T18:53:30.843Z,79.88
2023-03-20T18:57:29.663Z,80.03
2023-03-20T19:01:28.876Z,80.33
2023-03-20T19:05:26.814Z,80.47
2023-03-20T19:09:26.845Z,80.52
2023-03-20T19:13:31.776Z,80.94
2023-03-20T19:17:29.726Z,80.96
2023-03-20T19:21:32.768Z,81.23
2023-03-20T19:25:30.721Z,81.41
2023-03-20T19:29:28.805Z,81.58
2023-03-20T19:33:26.796Z,81.68
2023-03-20T19:37:26.826Z,81.84
2023-03-20T19:41:25.684Z,81.71
2023-03-20T19:45:25.773Z,81.42
2023-03-20T19:49:32.421Z,81.54
2023-03-20T19:53:34.712Z,81.61
2023-03-20T19:57:32.769Z,81.94
2023-03-20T20:01:34.852Z,82.07
2023-03-20T20:05:37.679Z,82.22
2023-03-20T20:09:35.727Z,82.18
2023-03-20T20:14:03.752Z,82.14
2023-03-20T20:18:00.781Z,82.08
2023-03-20T20:22:24.755Z,81.98
2023-03-20T20:26:16.665Z,81.85
2023-03-20T20:30:14.687Z,81.70
2023-03-20T20:35:21.961Z,81.47
2023-03-20T20:38:49.279Z,81.36
2023-03-20T20:42:49.685Z,81.40
2023-03-20T20:46:47.621Z,81.19
2023-03-20T20:50:47.629Z,81.18
2023-03-20T20:54:48.645Z,81.11
2023-03-20T20:58:46.634Z,80.96
2023-03-20T21:02:46.702Z,80.63
2023-03-20T21:07:08.059Z,80.53
2023-03-20T21:11:02.591Z,80.61
2023-03-20T21:15:00.752Z,80.51
2023-03-20T21:18:58.657Z,80.05
2023-03-20T21:22:56.633Z,80.31
2023-03-20T21:26:54.581Z,80.38
2023-03-20T21:31:16.615Z,80.58
2023-03-20T21:35:12.583Z,80.68
2023-03-20T21:39:10.645Z,80.83
2023-03-20T21:43:08.621Z,81.01
2023-03-20T21:56:41.896Z,81.40
2023-03-20T22:05:10.983Z,81.45
2023-03-20T22:09:30.885Z,81.75
2023-03-20T22:14:05.844Z,81.80
2023-03-20T22:22:05.529Z,82.12
2023-03-20T22:47:29.638Z,82.66
2023-03-20T22:51:34.328Z,82.63
2023-03-20T22:55:34.501Z,82.47
2023-03-20T22:59:32.480Z,82.74
2023-03-20T23:03:41.014Z,82.84
2023-03-20T23:07:39.497Z,82.85
2023-03-20T23:11:39.487Z,82.89
2023-03-20T23:15:37.435Z,83.02
2023-03-20T23:19:46.903Z,83.10
2023-03-20T23:23:48.414Z,83.17
2023-03-20T23:27:46.443Z,83.32
2023-03-20T23:31:44.599Z,83.50
2023-03-20T23:35:42.504Z,83.56
2023-03-20T23:39:40.385Z,83.57
2023-03-20T23:43:38.428Z,83.55
2023-03-20T23:47:44.234Z,83.40
2023-03-20T23:51:42.472Z,83.24
2023-03-20T23:55:40.813Z,83.29
2023-03-20T23:59:39.540Z,83.21
